sensor_id;sensor_type;location;lat;lon;timestamp;pressure;altitude;pressure_sealevel;temperature;humidity
20160;BME280;50187;50.492;12.134;2024-01-16T00:01:05;96270.13;;;21.00;24.14
20160;BME280;50187;50.492;12.134;2024-01-16T00:03:51;96268.22;;;21.01;24.16
20160;BME280;50187;50.492;12.134;2024-01-16T00:06:40;96272.81;;;21.00;24.34
20160;BME280;50187;50.492;12.134;2024-01-16T00:09:27;96277.41;;;21.00;24.36
20160;BME280;50187;50.492;12.134;2024-01-16T00:12:13;96288.84;;;21.02;24.42
20160;BME280;50187;50.492;12.134;2024-01-16T00:14:58;96290.91;;;21.00;24.12
20160;BME280;50187;50.492;12.134;2024-01-16T00:17:43;96287.16;;;21.01;24.19
20160;BME280;50187;50.492;12.134;2024-01-16T00:20:28;96295.25;;;21.01;24.46
20160;BME280;50187;50.492;12.134;2024-01-16T00:23:13;96297.16;;;21.00;24.20
20160;BME280;50187;50.492;12.134;2024-01-16T00:25:59;96305.25;;;21.00;24.10
20160;BME280;50187;50.492;12.134;2024-01-16T00:28:44;96304.19;;;20.95;24.20
20160;BME280;50187;50.492;12.134;2024-01-16T00:31:29;96311.69;;;20.99;24.33
20160;BME280;50187;50.492;12.134;2024-01-16T00:34:14;96317.94;;;21.00;24.40
20160;BME280;50187;50.492;12.134;2024-01-16T00:36:59;96324.19;;;21.00;24.14
20160;BME280;50187;50.492;12.134;2024-01-16T00:39:44;96331.84;;;20.97;24.25
20160;BME280;50187;50.492;12.134;2024-01-16T00:42:30;96323.34;;;21.00;24.24
20160;BME280;50187;50.492;12.134;2024-01-16T00:45:16;96337.25;;;20.97;24.37
20160;BME280;50187;50.492;12.134;2024-01-16T00:48:02;96342.28;;;21.00;24.35
20160;BME280;50187;50.492;12.134;2024-01-16T00:50:48;96334.16;;;21.00;24.13
20160;BME280;50187;50.492;12.134;2024-01-16T00:53:40;96333.72;;;20.96;24.09
20160;BME280;50187;50.492;12.134;2024-01-16T00:56:25;96331.47;;;21.00;24.08
20160;BME280;50187;50.492;12.134;2024-01-16T00:59:12;96332.69;;;20.97;24.32
20160;BME280;50187;50.492;12.134;2024-01-16T01:01:58;96340.81;;;20.97;24.18
20160;BME280;50187;50.492;12.134;2024-01-16T01:04:43;96342.44;;;20.98;24.18
20160;BME280;50187;50.492;12.134;2024-01-16T01:07:28;96339.94;;;20.97;24.10
20160;BME280;50187;50.492;12.134;2024-01-16T01:10:14;96337.25;;;20.97;24.12
20160;BME280;50187;50.492;12.134;2024-01-16T01:12:59;96336.63;;;20.95;24.23
20160;BME280;50187;50.492;12.134;2024-01-16T01:15:44;96339.94;;;20.97;24.16
20160;BME280;50187;50.492;12.134;2024-01-16T01:18:30;96349.47;;;20.92;24.23
20160;BME280;50187;50.492;12.134;2024-01-16T01:21:15;96356.16;;;20.97;24.43
20160;BME280;50187;50.492;12.134;2024-01-16T01:24:01;96358.88;;;20.97;24.21
20160;BME280;50187;50.492;12.134;2024-01-16T01:26:46;96357.22;;;20.96;24.19
20160;BME280;50187;50.492;12.134;2024-01-16T01:29:32;96361.34;;;20.91;24.35
20160;BME280;50187;50.492;12.134;2024-01-16T01:32:17;96357.22;;;20.96;24.45
20160;BME280;50187;50.492;12.134;2024-01-16T01:35:03;96360.75;;;20.96;24.19
20160;BME280;50187;50.492;12.134;2024-01-16T01:37:48;96365.31;;;20.96;24.16
20160;BME280;50187;50.492;12.134;2024-01-16T01:40:34;96366.56;;;20.93;24.23
20160;BME280;50187;50.492;12.134;2024-01-16T01:43:25;96366.34;;;20.95;24.27
20160;BME280;50187;50.492;12.134;2024-01-16T01:46:16;96380.50;;;20.97;24.54
20160;BME280;50187;50.492;12.134;2024-01-16T01:49:02;96385.66;;;20.91;24.29
20160;BME280;50187;50.492;12.134;2024-01-16T01:51:49;96382.56;;;20.95;24.41
20160;BME280;50187;50.492;12.134;2024-01-16T01:54:36;96380.69;;;20.95;24.21
20160;BME280;50187;50.492;12.134;2024-01-16T01:57:22;96399.63;;;20.95;24.15
20160;BME280;50187;50.492;12.134;2024-01-16T02:00:07;96385.47;;;20.93;24.44
20160;BME280;50187;50.492;12.134;2024-01-16T02:02:59;96401.69;;;20.93;24.21
20160;BME280;50187;50.492;12.134;2024-01-16T02:05:45;96401.88;;;20.91;24.42
20160;BME280;50187;50.492;12.134;2024-01-16T02:08:32;96413.09;;;20.88;24.39
20160;BME280;50187;50.492;12.134;2024-01-16T02:11:17;96403.53;;;20.92;24.44
20160;BME280;50187;50.492;12.134;2024-01-16T02:14:02;96406.25;;;20.92;24.20
20160;BME280;50187;50.492;12.134;2024-01-16T02:16:48;96420.16;;;20.89;24.19
20160;BME280;50187;50.492;12.134;2024-01-16T02:19:34;96418.50;;;20.88;24.25
20160;BME280;50187;50.492;12.134;2024-01-16T02:22:22;96426.41;;;20.90;24.32
20160;BME280;50187;50.492;12.134;2024-01-16T02:25:10;96433.28;;;20.92;24.35
20160;BME280;50187;50.492;12.134;2024-01-16T02:27:55;96431.81;;;20.90;24.41
20160;BME280;50187;50.492;12.134;2024-01-16T02:30:42;96424.47;;;20.84;24.26
20160;BME280;50187;50.492;12.134;2024-01-16T02:33:27;96427.25;;;20.90;24.27
20160;BME280;50187;50.492;12.134;2024-01-16T02:36:13;96429.13;;;20.90;24.49
20160;BME280;50187;50.492;12.134;2024-01-16T02:38:58;96433.03;;;20.87;24.30
20160;BME280;50187;50.492;12.134;2024-01-16T02:41:44;96428.06;;;20.91;24.38
20160;BME280;50187;50.492;12.134;2024-01-16T02:44:30;96426.41;;;20.90;24.19
20160;BME280;50187;50.492;12.134;2024-01-16T02:47:15;96433.47;;;20.91;24.20
20160;BME280;50187;50.492;12.134;2024-01-16T02:50:01;96446.56;;;20.87;24.25
20160;BME280;50187;50.492;12.134;2024-01-16T02:52:46;96445.13;;;20.91;24.19
20160;BME280;50187;50.492;12.134;2024-01-16T02:55:31;96440.94;;;20.89;24.48
20160;BME280;50187;50.492;12.134;2024-01-16T02:58:16;96433.88;;;20.88;24.47
20160;BME280;50187;50.492;12.134;2024-01-16T03:01:01;96451.09;;;20.87;24.38
20160;BME280;50187;50.492;12.134;2024-01-16T03:03:47;96438.25;;;20.89;24.21
20160;BME280;50187;50.492;12.134;2024-01-16T03:06:32;96438.25;;;20.89;24.36
20160;BME280;50187;50.492;12.134;2024-01-16T03:09:18;96441.78;;;20.89;24.23
20160;BME280;50187;50.492;12.134;2024-01-16T03:12:04;96445.53;;;20.88;24.19
20160;BME280;50187;50.492;12.134;2024-01-16T03:14:49;96448.78;;;20.84;24.25
20160;BME280;50187;50.492;12.134;2024-01-16T03:17:34;96447.31;;;20.81;24.49
20160;BME280;50187;50.492;12.134;2024-01-16T03:23:04;96462.09;;;20.85;24.30
20160;BME280;50187;50.492;12.134;2024-01-16T03:25:50;96451.69;;;20.82;24.35
20160;BME280;50187;50.492;12.134;2024-01-16T03:28:35;96447.56;;;20.86;24.31
20160;BME280;50187;50.492;12.134;2024-01-16T03:34:06;96446.22;;;20.75;24.46
20160;BME280;50187;50.492;12.134;2024-01-16T03:36:55;96452.97;;;20.86;24.47
20160;BME280;50187;50.492;12.134;2024-01-16T03:39:40;96449.19;;;20.81;24.32
20160;BME280;50187;50.492;12.134;2024-01-16T03:45:11;96451.69;;;20.82;24.51
20160;BME280;50187;50.492;12.134;2024-01-16T03:47:59;96456.91;;;20.84;24.40
20160;BME280;50187;50.492;12.134;2024-01-16T03:50:45;96462.09;;;20.85;24.24
20160;BME280;50187;50.492;12.134;2024-01-16T03:53:31;96457.50;;;20.79;24.24
20160;BME280;50187;50.492;12.134;2024-01-16T03:56:17;96466.88;;;20.83;24.33
20160;BME280;50187;50.492;12.134;2024-01-16T03:59:02;96479.56;;;20.83;24.48
20160;BME280;50187;50.492;12.134;2024-01-16T04:01:48;96490.38;;;20.83;24.50
20160;BME280;50187;50.492;12.134;2024-01-16T04:04:34;96495.13;;;20.81;24.26
20160;BME280;50187;50.492;12.134;2024-01-16T04:07:22;96486.56;;;20.77;24.47
20160;BME280;50187;50.492;12.134;2024-01-16T04:10:08;96489.94;;;20.79;24.58
20160;BME280;50187;50.492;12.134;2024-01-16T04:12:54;96492.22;;;20.82;24.26
20160;BME280;50187;50.492;12.134;2024-01-16T04:15:39;96501.38;;;20.81;24.27
20160;BME280;50187;50.492;12.134;2024-01-16T04:18:25;96505.31;;;20.79;24.52
20160;BME280;50187;50.492;12.134;2024-01-16T04:21:10;96510.31;;;20.82;24.38
20160;BME280;50187;50.492;12.134;2024-01-16T04:23:56;96505.94;;;20.81;24.44
20160;BME280;50187;50.492;12.134;2024-01-16T04:26:41;96502.41;;;20.80;24.56
20160;BME280;50187;50.492;12.134;2024-01-16T04:29:27;96510.31;;;20.82;24.23
20160;BME280;50187;50.492;12.134;2024-01-16T04:32:12;96501.19;;;20.83;24.53
20160;BME280;50187;50.492;12.134;2024-01-16T04:34:58;96502.22;;;20.82;24.54
20160;BME280;50187;50.492;12.134;2024-01-16T04:37:43;96510.53;;;20.80;24.27
20160;BME280;50187;50.492;12.134;2024-01-16T04:40:28;96515.94;;;20.80;24.57
20160;BME280;50187;50.492;12.134;2024-01-16T04:43:13;96520.28;;;20.81;24.35
20160;BME280;50187;50.492;12.134;2024-01-16T04:45:59;96520.28;;;20.81;24.27
20160;BME280;50187;50.492;12.134;2024-01-16T04:48:48;96523.84;;;20.82;24.25
20160;BME280;50187;50.492;12.134;2024-01-16T04:51:33;96521.34;;;20.80;24.53
20160;BME280;50187;50.492;12.134;2024-01-16T04:54:18;96514.38;;;20.71;24.54
20160;BME280;50187;50.492;12.134;2024-01-16T04:57:04;96530.47;;;20.79;24.26
20160;BME280;50187;50.492;12.134;2024-01-16T04:59:49;96531.09;;;20.81;24.42
20160;BME280;50187;50.492;12.134;2024-01-16T05:02:35;96540.28;;;20.87;24.31
20160;BME280;50187;50.492;12.134;2024-01-16T05:05:21;96547.19;;;20.89;24.22
20160;BME280;50187;50.492;12.134;2024-01-16T05:08:06;96536.66;;;20.95;24.40
20160;BME280;50187;50.492;12.134;2024-01-16T05:10:51;96534.03;;;21.01;24.13
20160;BME280;50187;50.492;12.134;2024-01-16T05:13:36;96534.25;;;21.06;24.26
20160;BME280;50187;50.492;12.134;2024-01-16T05:16:21;96547.00;;;21.13;24.02
20160;BME280;50187;50.492;12.134;2024-01-16T05:19:06;96541.66;;;21.19;24.28
20160;BME280;50187;50.492;12.134;2024-01-16T05:21:52;96542.91;;;21.17;23.85
20160;BME280;50187;50.492;12.134;2024-01-16T05:24:37;96554.41;;;21.25;24.12
20160;BME280;50187;50.492;12.134;2024-01-16T05:27:22;96559.81;;;21.25;24.15
20160;BME280;50187;50.492;12.134;2024-01-16T05:30:07;96558.19;;;21.31;24.10
20160;BME280;50187;50.492;12.134;2024-01-16T05:32:53;96566.50;;;21.30;24.16
20160;BME280;50187;50.492;12.134;2024-01-16T05:35:38;96571.13;;;21.36;23.93
20160;BME280;50187;50.492;12.134;2024-01-16T05:38:23;96562.00;;;21.37;24.04
20160;BME280;50187;50.492;12.134;2024-01-16T05:41:08;96563.47;;;21.39;23.82
20160;BME280;50187;50.492;12.134;2024-01-16T05:43:54;96568.69;;;21.41;23.90
20160;BME280;50187;50.492;12.134;2024-01-16T05:46:39;96563.91;;;21.43;23.84
20160;BME280;50187;50.492;12.134;2024-01-16T05:49:24;96566.00;;;21.41;23.94
20160;BME280;50187;50.492;12.134;2024-01-16T05:52:10;96568.69;;;21.41;23.80
20160;BME280;50187;50.492;12.134;2024-01-16T05:54:55;96574.94;;;21.41;24.00
20160;BME280;50187;50.492;12.134;2024-01-16T05:57:42;96573.25;;;21.40;24.03
20160;BME280;50187;50.492;12.134;2024-01-16T06:00:28;96571.19;;;21.42;23.80
20160;BME280;50187;50.492;12.134;2024-01-16T06:03:14;96571.81;;;21.44;23.97
20160;BME280;50187;50.492;12.134;2024-01-16T06:05:59;96582.66;;;21.44;23.79
20160;BME280;50187;50.492;12.134;2024-01-16T06:08:44;96582.03;;;21.42;23.76
20160;BME280;50187;50.492;12.134;2024-01-16T06:11:33;96593.28;;;21.46;23.89
20160;BME280;50187;50.492;12.134;2024-01-16T06:14:20;96585.81;;;21.48;24.02
20160;BME280;50187;50.492;12.134;2024-01-16T06:17:06;96580.41;;;21.48;23.80
20160;BME280;50187;50.492;12.134;2024-01-16T06:19:52;96575.00;;;21.48;23.94
20160;BME280;50187;50.492;12.134;2024-01-16T06:22:37;96582.53;;;21.53;23.84
20160;BME280;50187;50.492;12.134;2024-01-16T06:25:22;96578.81;;;21.54;23.69
20160;BME280;50187;50.492;12.134;2024-01-16T06:28:07;96585.91;;;21.55;23.69
20160;BME280;50187;50.492;12.134;2024-01-16T06:30:53;96584.03;;;21.55;23.64
20160;BME280;50187;50.492;12.134;2024-01-16T06:33:38;96578.00;;;21.53;23.96
20160;BME280;50187;50.492;12.134;2024-01-16T06:36:23;96587.56;;;21.56;23.69
20160;BME280;50187;50.492;12.134;2024-01-16T06:39:08;96587.75;;;21.54;23.77
20160;BME280;50187;50.492;12.134;2024-01-16T06:41:53;96584.84;;;21.56;23.86
20160;BME280;50187;50.492;12.134;2024-01-16T06:44:39;96604.66;;;21.56;23.89
20160;BME280;50187;50.492;12.134;2024-01-16T06:47:24;96607.59;;;21.61;23.74
20160;BME280;50187;50.492;12.134;2024-01-16T06:50:10;96613.19;;;21.60;23.79
20160;BME280;50187;50.492;12.134;2024-01-16T06:52:56;96602.56;;;21.58;23.90
20160;BME280;50187;50.492;12.134;2024-01-16T06:55:41;96613.19;;;21.60;23.65
20160;BME280;50187;50.492;12.134;2024-01-16T06:58:26;96611.09;;;21.55;23.89
20160;BME280;50187;50.492;12.134;2024-01-16T07:01:11;96617.78;;;21.59;23.75
20160;BME280;50187;50.492;12.134;2024-01-16T07:03:56;96620.88;;;21.56;23.67
20160;BME280;50187;50.492;12.134;2024-01-16T07:06:42;96621.72;;;21.57;23.86
20160;BME280;50187;50.492;12.134;2024-01-16T07:09:29;96622.16;;;21.60;23.66
20160;BME280;50187;50.492;12.134;2024-01-16T07:12:14;96627.59;;;21.60;23.52
20160;BME280;50187;50.492;12.134;2024-01-16T07:14:59;96629.22;;;21.61;23.60
20160;BME280;50187;50.492;12.134;2024-01-16T07:17:45;96640.06;;;21.61;23.58
20160;BME280;50187;50.492;12.134;2024-01-16T07:20:30;96644.59;;;21.54;23.70
20160;BME280;50187;50.492;12.134;2024-01-16T07:23:15;96641.75;;;21.63;23.78
20160;BME280;50187;50.492;12.134;2024-01-16T07:26:00;96636.13;;;21.64;23.63
20160;BME280;50187;50.492;12.134;2024-01-16T07:28:48;96645.75;;;21.67;23.91
20160;BME280;50187;50.492;12.134;2024-01-16T07:31:34;96650.31;;;21.66;23.61
20160;BME280;50187;50.492;12.134;2024-01-16T07:34:19;96652.19;;;21.66;23.55
20160;BME280;50187;50.492;12.134;2024-01-16T07:37:07;96653.84;;;21.67;23.61
20160;BME280;50187;50.492;12.134;2024-01-16T07:39:53;96646.97;;;21.64;23.71
20160;BME280;50187;50.492;12.134;2024-01-16T07:42:38;96636.53;;;21.61;23.65
20160;BME280;50187;50.492;12.134;2024-01-16T07:45:24;96633.44;;;21.64;23.74
20160;BME280;50187;50.492;12.134;2024-01-16T07:48:09;96641.16;;;21.67;23.49
20160;BME280;50187;50.492;12.134;2024-01-16T07:50:54;96638.63;;;21.66;23.95
20160;BME280;50187;50.492;12.134;2024-01-16T07:53:39;96645.13;;;21.65;23.80
20160;BME280;50187;50.492;12.134;2024-01-16T07:56:24;96650.31;;;21.66;23.79
20160;BME280;50187;50.492;12.134;2024-01-16T07:59:09;96657.59;;;21.66;23.78
20160;BME280;50187;50.492;12.134;2024-01-16T08:01:55;96646.75;;;21.66;23.52
20160;BME280;50187;50.492;12.134;2024-01-16T08:04:40;96649.47;;;21.66;23.57
20160;BME280;50187;50.492;12.134;2024-01-16T08:07:26;96653.41;;;21.63;23.70
20160;BME280;50187;50.492;12.134;2024-01-16T08:10:11;96648.84;;;21.64;23.75
20160;BME280;50187;50.492;12.134;2024-01-16T08:12:59;96660.56;;;21.71;23.73
20160;BME280;50187;50.492;12.134;2024-01-16T08:15:44;96659.06;;;21.68;23.58
20160;BME280;50187;50.492;12.134;2024-01-16T08:18:29;96661.34;;;21.65;23.80
20160;BME280;50187;50.492;12.134;2024-01-16T08:21:16;96668.47;;;21.72;23.85
20160;BME280;50187;50.492;12.134;2024-01-16T08:24:01;96671.19;;;21.72;23.49
20160;BME280;50187;50.492;12.134;2024-01-16T08:26:47;96666.44;;;21.74;23.71
20160;BME280;50187;50.492;12.134;2024-01-16T08:29:33;96668.94;;;21.76;23.75
20160;BME280;50187;50.492;12.134;2024-01-16T08:32:18;96667.88;;;21.77;23.64
20160;BME280;50187;50.492;12.134;2024-01-16T08:35:05;96667.66;;;21.72;23.51
20160;BME280;50187;50.492;12.134;2024-01-16T08:37:50;96672.47;;;21.76;23.85
20160;BME280;50187;50.492;12.134;2024-01-16T08:40:35;96665.19;;;21.77;23.67
20160;BME280;50187;50.492;12.134;2024-01-16T08:43:21;96670.59;;;21.77;23.57
20160;BME280;50187;50.492;12.134;2024-01-16T08:46:06;96667.69;;;21.78;23.69
20160;BME280;50187;50.492;12.134;2024-01-16T08:48:52;96677.06;;;21.76;23.63
20160;BME280;50187;50.492;12.134;2024-01-16T08:51:37;96676.66;;;21.79;23.48
20160;BME280;50187;50.492;12.134;2024-01-16T08:54:22;96670.59;;;21.77;23.34
20160;BME280;50187;50.492;12.134;2024-01-16T08:57:08;96678.53;;;21.78;23.79
20160;BME280;50187;50.492;12.134;2024-01-16T08:59:55;96677.88;;;21.76;23.44
20160;BME280;50187;50.492;12.134;2024-01-16T09:02:41;96675.44;;;21.82;23.35
20160;BME280;50187;50.492;12.134;2024-01-16T09:05:26;96681.69;;;21.82;23.64
20160;BME280;50187;50.492;12.134;2024-01-16T09:08:12;96681.22;;;21.78;23.37
20160;BME280;50187;50.492;12.134;2024-01-16T09:10:58;96674.28;;;21.69;23.65
20160;BME280;50187;50.492;12.134;2024-01-16T09:13:43;96697.28;;;21.80;23.35
20160;BME280;50187;50.492;12.134;2024-01-16T09:16:29;96693.13;;;21.84;23.35
20160;BME280;50187;50.492;12.134;2024-01-16T09:19:14;96699.59;;;21.83;23.45
20160;BME280;50187;50.492;12.134;2024-01-16T09:21:59;96706.94;;;21.89;23.52
20160;BME280;50187;50.492;12.134;2024-01-16T09:24:44;96700.03;;;21.87;23.30
20160;BME280;50187;50.492;12.134;2024-01-16T09:27:29;96705.25;;;21.88;23.36
20160;BME280;50187;50.492;12.134;2024-01-16T09:30:15;96701.91;;;21.86;23.44
20160;BME280;50187;50.492;12.134;2024-01-16T09:33:00;96705.66;;;21.85;23.42
20160;BME280;50187;50.492;12.134;2024-01-16T09:35:46;96711.06;;;21.85;23.38
20160;BME280;50187;50.492;12.134;2024-01-16T09:38:32;96709.66;;;21.89;23.47
20160;BME280;50187;50.492;12.134;2024-01-16T09:41:17;96694.44;;;21.88;23.57
20160;BME280;50187;50.492;12.134;2024-01-16T09:44:03;96698.75;;;21.83;23.48
20160;BME280;50187;50.492;12.134;2024-01-16T09:46:49;96704.88;;;21.91;23.26
20160;BME280;50187;50.492;12.134;2024-01-16T09:49:35;96706.75;;;21.91;23.46
20160;BME280;50187;50.492;12.134;2024-01-16T09:52:21;96714.25;;;21.89;23.50
20160;BME280;50187;50.492;12.134;2024-01-16T09:55:06;96713.00;;;21.91;23.43
20160;BME280;50187;50.492;12.134;2024-01-16T09:57:52;96709.44;;;21.91;23.58
20160;BME280;50187;50.492;12.134;2024-01-16T10:00:42;96711.06;;;21.85;23.41
20160;BME280;50187;50.492;12.134;2024-01-16T10:03:30;96714.44;;;21.87;23.35
20160;BME280;50187;50.492;12.134;2024-01-16T10:06:17;96694.81;;;21.85;23.40
20160;BME280;50187;50.492;12.134;2024-01-16T10:09:05;96707.97;;;21.88;23.59
20160;BME280;50187;50.492;12.134;2024-01-16T10:11:51;96699.22;;;21.86;23.68
20160;BME280;50187;50.492;12.134;2024-01-16T10:14:38;96711.53;;;21.89;23.48
20160;BME280;50187;50.492;12.134;2024-01-16T10:20:33;96707.75;;;21.90;23.49
20160;BME280;50187;50.492;12.134;2024-01-16T10:23:24;96700.03;;;21.87;23.31
20160;BME280;50187;50.492;12.134;2024-01-16T10:26:12;96691.50;;;21.83;23.52
20160;BME280;50187;50.492;12.134;2024-01-16T10:29:03;96701.13;;;21.92;23.32
20160;BME280;50187;50.492;12.134;2024-01-16T10:31:49;96701.31;;;21.91;23.46
20160;BME280;50187;50.492;12.134;2024-01-16T10:34:34;96689.28;;;21.93;23.50
20160;BME280;50187;50.492;12.134;2024-01-16T10:37:20;96699.09;;;21.94;23.40
20160;BME280;50187;50.492;12.134;2024-01-16T10:40:06;96692.63;;;21.95;23.35
20160;BME280;50187;50.492;12.134;2024-01-16T10:42:58;96691.97;;;21.93;23.54
20160;BME280;50187;50.492;12.134;2024-01-16T10:45:44;96693.88;;;21.93;23.33
20160;BME280;50187;50.492;12.134;2024-01-16T10:48:29;96704.88;;;21.91;23.43
20160;BME280;50187;50.492;12.134;2024-01-16T10:51:15;96697.88;;;21.97;23.31
20160;BME280;50187;50.492;12.134;2024-01-16T10:54:03;96697.00;;;21.96;23.30
20160;BME280;50187;50.492;12.134;2024-01-16T10:56:54;96692.44;;;21.97;23.14
20160;BME280;50187;50.492;12.134;2024-01-16T11:00:05;96695.78;;;21.99;23.47
20160;BME280;50187;50.492;12.134;2024-01-16T11:03:01;96694.94;;;21.99;23.30
20160;BME280;50187;50.492;12.134;2024-01-16T11:05:49;96684.13;;;21.99;23.44
20160;BME280;50187;50.492;12.134;2024-01-16T11:08:36;96690.16;;;22.01;23.27
20160;BME280;50187;50.492;12.134;2024-01-16T11:11:23;96702.03;;;22.00;23.21
20160;BME280;50187;50.492;12.134;2024-01-16T11:14:10;96687.41;;;21.94;23.41
20160;BME280;50187;50.492;12.134;2024-01-16T11:16:56;96708.28;;;22.00;23.41
20160;BME280;50187;50.492;12.134;2024-01-16T11:19:42;96696.25;;;22.03;23.23
20160;BME280;50187;50.492;12.134;2024-01-16T11:22:49;96704.78;;;22.06;23.58
20160;BME280;50187;50.492;12.134;2024-01-16T11:25:34;96701.84;;;22.01;23.40
20160;BME280;50187;50.492;12.134;2024-01-16T11:28:20;96690.63;;;22.04;23.14
20160;BME280;50187;50.492;12.134;2024-01-16T11:31:30;96705.25;;;22.10;23.42
20160;BME280;50187;50.492;12.134;2024-01-16T11:37:30;96689.63;;;22.12;23.15
20160;BME280;50187;50.492;12.134;2024-01-16T11:46:16;96681.56;;;22.47;23.17
20160;BME280;50187;50.492;12.134;2024-01-16T11:49:02;96690.81;;;22.59;22.70
20160;BME280;50187;50.492;12.134;2024-01-16T11:51:48;96691.44;;;22.61;22.92
20160;BME280;50187;50.492;12.134;2024-01-16T11:54:33;96698.34;;;22.64;22.92
20160;BME280;50187;50.492;12.134;2024-01-16T12:00:23;96699.16;;;22.64;22.58
20160;BME280;50187;50.492;12.134;2024-01-16T12:03:15;96697.88;;;22.54;22.94
20160;BME280;50187;50.492;12.134;2024-01-16T12:06:16;96708.22;;;22.43;22.95
20160;BME280;50187;50.492;12.134;2024-01-16T12:09:15;96702.13;;;22.35;23.03
20160;BME280;50187;50.492;12.134;2024-01-16T12:12:02;96713.53;;;22.30;23.10
20160;BME280;50187;50.492;12.134;2024-01-16T12:14:51;96689.34;;;22.28;23.11
20160;BME280;50187;50.492;12.134;2024-01-16T12:17:51;96691.78;;;22.23;23.22
20160;BME280;50187;50.492;12.134;2024-01-16T12:20:37;96684.88;;;22.21;23.29
20160;BME280;50187;50.492;12.134;2024-01-16T12:23:24;96694.69;;;22.22;23.08
20160;BME280;50187;50.492;12.134;2024-01-16T12:26:09;96685.09;;;22.19;23.28
20160;BME280;50187;50.492;12.134;2024-01-16T12:28:55;96703.22;;;22.19;23.33
20160;BME280;50187;50.492;12.134;2024-01-16T12:31:44;96672.78;;;22.17;23.12
20160;BME280;50187;50.492;12.134;2024-01-16T12:34:29;96661.25;;;22.08;23.19
20160;BME280;50187;50.492;12.134;2024-01-16T12:37:15;96703.16;;;22.12;23.29
20160;BME280;50187;50.492;12.134;2024-01-16T12:40:00;96662.53;;;22.12;23.37
20160;BME280;50187;50.492;12.134;2024-01-16T12:42:46;96663.41;;;22.12;23.10
20160;BME280;50187;50.492;12.134;2024-01-16T12:45:31;96661.72;;;22.11;23.32
20160;BME280;50187;50.492;12.134;2024-01-16T12:48:25;96656.69;;;22.08;23.21
20160;BME280;50187;50.492;12.134;2024-01-16T12:51:11;96650.03;;;22.11;23.18
20160;BME280;50187;50.492;12.134;2024-01-16T12:54:18;96640.81;;;22.05;23.13
20160;BME280;50187;50.492;12.134;2024-01-16T12:57:07;96643.78;;;22.10;23.22
20160;BME280;50187;50.492;12.134;2024-01-16T12:59:55;96645.00;;;22.08;23.48
20160;BME280;50187;50.492;12.134;2024-01-16T13:02:49;96650.44;;;22.08;23.32
20160;BME280;50187;50.492;12.134;2024-01-16T13:05:34;96678.94;;;22.04;23.42
20160;BME280;50187;50.492;12.134;2024-01-16T13:08:20;96635.59;;;22.04;23.39
20160;BME280;50187;50.492;12.134;2024-01-16T13:11:07;96645.63;;;22.03;23.21
20160;BME280;50187;50.492;12.134;2024-01-16T13:14:00;96640.78;;;21.99;23.29
20160;BME280;50187;50.492;12.134;2024-01-16T13:16:49;96673.09;;;22.00;23.37
20160;BME280;50187;50.492;12.134;2024-01-16T13:19:35;96650.78;;;21.98;23.57
20160;BME280;50187;50.492;12.134;2024-01-16T13:22:21;96656.38;;;21.96;23.35
20160;BME280;50187;50.492;12.134;2024-01-16T13:25:24;96649.94;;;21.98;23.29
20160;BME280;50187;50.492;12.134;2024-01-16T13:28:12;96659.94;;;21.97;23.29
20160;BME280;50187;50.492;12.134;2024-01-16T13:30:57;96656.59;;;21.95;23.48
20160;BME280;50187;50.492;12.134;2024-01-16T13:33:43;96662.81;;;21.95;23.52
20160;BME280;50187;50.492;12.134;2024-01-16T13:36:29;96658.66;;;21.93;23.22
20160;BME280;50187;50.492;12.134;2024-01-16T13:39:34;96667.63;;;21.93;23.25
20160;BME280;50187;50.492;12.134;2024-01-16T13:42:23;96659.50;;;21.93;23.48
20160;BME280;50187;50.492;12.134;2024-01-16T13:45:08;96649.69;;;21.92;23.32
20160;BME280;50187;50.492;12.134;2024-01-16T13:47:57;96652.19;;;21.94;23.29
20160;BME280;50187;50.492;12.134;2024-01-16T13:50:43;96651.16;;;21.95;23.38
20160;BME280;50187;50.492;12.134;2024-01-16T13:53:29;96651.56;;;21.92;23.40
20160;BME280;50187;50.492;12.134;2024-01-16T13:56:14;96641.56;;;21.92;23.14
20160;BME280;50187;50.492;12.134;2024-01-16T13:59:02;96654.69;;;21.95;23.45
20160;BME280;50187;50.492;12.134;2024-01-16T14:01:47;96665.53;;;21.95;23.43
20160;BME280;50187;50.492;12.134;2024-01-16T14:04:32;96672.63;;;21.96;23.56
20160;BME280;50187;50.492;12.134;2024-01-16T14:07:17;96665.53;;;21.95;23.50
20160;BME280;50187;50.492;12.134;2024-01-16T14:10:05;96665.53;;;21.95;23.29
20160;BME280;50187;50.492;12.134;2024-01-16T14:12:51;96662.00;;;21.95;23.18
20160;BME280;50187;50.492;12.134;2024-01-16T14:15:36;96642.78;;;21.90;23.26
20160;BME280;50187;50.492;12.134;2024-01-16T14:18:21;96659.50;;;21.93;23.49
20160;BME280;50187;50.492;12.134;2024-01-16T14:21:08;96641.56;;;21.92;23.21
20160;BME280;50187;50.492;12.134;2024-01-16T14:23:53;96637.84;;;21.93;23.28
20160;BME280;50187;50.492;12.134;2024-01-16T14:26:38;96642.41;;;21.93;23.24
20160;BME280;50187;50.492;12.134;2024-01-16T14:29:23;96651.16;;;21.95;23.21
20160;BME280;50187;50.492;12.134;2024-01-16T14:32:09;96643.25;;;21.93;23.46
20160;BME280;50187;50.492;12.134;2024-01-16T14:34:55;96645.31;;;21.91;23.33
20160;BME280;50187;50.492;12.134;2024-01-16T14:37:40;96632.16;;;21.88;23.30
20160;BME280;50187;50.492;12.134;2024-01-16T14:40:26;96629.91;;;21.92;23.29
20160;BME280;50187;50.492;12.134;2024-01-16T14:43:12;96634.50;;;21.91;23.49
20160;BME280;50187;50.492;12.134;2024-01-16T14:45:57;96633.63;;;21.91;23.50
20160;BME280;50187;50.492;12.134;2024-01-16T14:48:44;96646.34;;;21.90;23.50
20160;BME280;50187;50.492;12.134;2024-01-16T14:51:29;96633.63;;;21.91;23.34
20160;BME280;50187;50.492;12.134;2024-01-16T14:54:15;96643.25;;;21.93;23.50